METAR

EDDW 010750Z 14002KT 1400 R09/P2000N BR OVC003 06/06 Q1011 TEMPO 2000

Location

EDDW
Bremen Airport

Time

010750Z
1st of the Month
07:50 Zulu / UTC
18 minutes ago

Wind

14002KT
Wind Direction 140°
Southeast
Wind Speed 2 knots

Visibility

1400 R09/P2000N
1400 meters
at Runway 09 Plus 2000 m No Change

Weather

BR
Mist

Clouds

OVC003
Overcast Clouds (88) at 300 ft  

Temperature

06/06
Temperature 6 °C
Dew Point 6 °C

Air Pressure

Q1011
1011 hPa

Trend

TEMPO
2000

Temporary
Visibility 2000 meters